Vega Epsilon — D5EV4 — position and weather

sailwx.info

Track history (hours):
 
Tides and Currents Weather Stations Pressure Air Temp Water Temp Dewpoint Dewpoint Depression Visibility Wind Speed Wind Dir Waves Ship Positions

Vega Epsilon

Last reported at 2017-Oct-17 21:18 UTC. Time now 2017-Oct-22 21:16 UTC.
Position N 40°53' E 001°39'.

Length 148 m; draft 6.9 m.

Type: Ship (hazmat cat A). MMSI: 636092525.

Date/timePositionNaut miles runAvg speedWind from/ knotsBaromVisibWave heightAir tempDewpointWater temp
2017-Oct-17 21:18N 40°53' E 001°39'414.9
2017-Oct-17 21:00N 40°56' E 001°43'714.9
2017-Oct-17 20:31N 41°01' E 001°50'714.5
2017-Oct-17 20:00N 41°06' E 001°57'714.2
2017-Oct-17 19:30N 41°11' E 002°03'814.2
2017-Oct-17 18:57N 41°17' E 002°11'2 0.1
2017-Oct-16 18:16N 41°19' E 002°09'1 4.9
2017-Oct-16 18:00N 41°19' E 002°11'0 0.0
2017-Oct-16 04:13N 41°18' E 002°12'513.8
2017-Oct-16 03:51N 41°13' E 002°11'515.3
2017-Oct-16 03:31N 41°08' E 002°11'9915.2
2017-Oct-15 21:00N 39°29' E 002°19'815.2
2017-Oct-15 20:30N 39°22' E 002°22'715.2
2017-Oct-15 20:00N 39°14' E 002°22'814.9
2017-Oct-15 19:29N 39°07' E 002°24'145 5.5
2017-Oct-14 17:15N 36°46' E 003°04'0 0.0
2017-Oct-14 17:00N 36°46' E 003°04'0 0.0
2017-Oct-14 13:45N 36°46' E 003°04'0 0.0
2017-Oct-14 00:39N 36°46' E 003°04'0 0.0
2017-Oct-14 00:30N 36°46' E 003°04'0 0.0
2017-Oct-13 19:38N 36°46' E 003°04'0 0.0
2017-Oct-13 19:11N 36°46' E 003°04'0 0.0
2017-Oct-13 18:56N 36°46' E 003°04'0 0.0
2017-Oct-13 16:32N 36°46' E 003°04'0 0.1
2017-Oct-13 16:29N 36°46' E 003°04'0 0.0
2017-Oct-13 15:59N 36°46' E 003°04'0 0.0
2017-Oct-13 15:23N 36°46' E 003°04'0 0.0
2017-Oct-13 09:20N 36°46' E 003°04'0 0.0
2017-Oct-13 01:17N 36°46' E 003°04'0 0.0
2017-Oct-13 00:13N 36°46' E 003°04'0 0.0
2017-Oct-12 20:46N 36°46' E 003°04'0 0.0
2017-Oct-12 20:28N 36°46' E 003°04'0 0.1
2017-Oct-12 20:00N 36°46' E 003°04'1 2.0
2017-Oct-12 19:30N 36°46' E 003°05'1 2.6
2017-Oct-12 18:59N 36°46' E 003°07'0 0.1
2017-Oct-12 16:41N 36°46' E 003°07'0 0.0
2017-Oct-12 14:52N 36°46' E 003°07'1 1.1
2017-Oct-12 14:12N 36°47' E 003°07'211.4
2017-Oct-12 13:59N 36°49' E 003°06'1015.5
2017-Oct-12 13:22N 36°56' E 002°58'615.2
2017-Oct-12 13:00N 37°00' E 002°53'715.1
2017-Oct-12 12:30N 37°05' E 002°46'915.3
2017-Oct-12 11:55N 37°11' E 002°38'9615.3
2017-Oct-12 05:37N 38°18' E 001°11'515.6
2017-Oct-12 05:19N 38°21' E 001°06'515.5
2017-Oct-12 05:00N 38°25' E 001°03'1215.1
2017-Oct-12 04:13N 38°34' E 000°52'  
Track history (hours):
 
Tides and Currents Weather Stations Pressure Air Temp Water Temp Dewpoint Dewpoint Depression Visibility Wind Speed Wind Dir Waves Ship Positions

Vega Epsilon

Last reported at 2017-Oct-17 21:18 UTC. Time now 2017-Oct-22 21:16 UTC.
Position N 40°53' E 001°39'.

Length 148 m; draft 6.9 m.

Type: Ship (hazmat cat A). MMSI: 636092525.

Date/timePositionNaut miles runAvg speedWind from/ knotsBaromVisibWave heightAir tempDewpointWater temp
2017-Oct-17 21:18N 40°53' E 001°39'414.9
2017-Oct-17 21:00N 40°56' E 001°43'714.9
2017-Oct-17 20:31N 41°01' E 001°50'714.5
2017-Oct-17 20:00N 41°06' E 001°57'714.2
2017-Oct-17 19:30N 41°11' E 002°03'814.2
2017-Oct-17 18:57N 41°17' E 002°11'2 0.1
2017-Oct-16 18:16N 41°19' E 002°09'1 4.9
2017-Oct-16 18:00N 41°19' E 002°11'0 0.0
2017-Oct-16 04:13N 41°18' E 002°12'513.8
2017-Oct-16 03:51N 41°13' E 002°11'515.3
2017-Oct-16 03:31N 41°08' E 002°11'9915.2
2017-Oct-15 21:00N 39°29' E 002°19'815.2
2017-Oct-15 20:30N 39°22' E 002°22'715.2
2017-Oct-15 20:00N 39°14' E 002°22'814.9
2017-Oct-15 19:29N 39°07' E 002°24'145 5.5
2017-Oct-14 17:15N 36°46' E 003°04'0 0.0
2017-Oct-14 17:00N 36°46' E 003°04'0 0.0
2017-Oct-14 13:45N 36°46' E 003°04'0 0.0
2017-Oct-14 00:39N 36°46' E 003°04'0 0.0
2017-Oct-14 00:30N 36°46' E 003°04'0 0.0
2017-Oct-13 19:38N 36°46' E 003°04'0 0.0
2017-Oct-13 19:11N 36°46' E 003°04'0 0.0
2017-Oct-13 18:56N 36°46' E 003°04'0 0.0
2017-Oct-13 16:32N 36°46' E 003°04'0 0.1
2017-Oct-13 16:29N 36°46' E 003°04'0 0.0
2017-Oct-13 15:59N 36°46' E 003°04'0 0.0
2017-Oct-13 15:23N 36°46' E 003°04'0 0.0
2017-Oct-13 09:20N 36°46' E 003°04'0 0.0
2017-Oct-13 01:17N 36°46' E 003°04'0 0.0
2017-Oct-13 00:13N 36°46' E 003°04'0 0.0
2017-Oct-12 20:46N 36°46' E 003°04'0 0.0
2017-Oct-12 20:28N 36°46' E 003°04'0 0.1
2017-Oct-12 20:00N 36°46' E 003°04'1 2.0
2017-Oct-12 19:30N 36°46' E 003°05'1 2.6
2017-Oct-12 18:59N 36°46' E 003°07'0 0.1
2017-Oct-12 16:41N 36°46' E 003°07'0 0.0
2017-Oct-12 14:52N 36°46' E 003°07'1 1.1
2017-Oct-12 14:12N 36°47' E 003°07'211.4
2017-Oct-12 13:59N 36°49' E 003°06'1015.5
2017-Oct-12 13:22N 36°56' E 002°58'615.2
2017-Oct-12 13:00N 37°00' E 002°53'715.1
2017-Oct-12 12:30N 37°05' E 002°46'915.3
2017-Oct-12 11:55N 37°11' E 002°38'9615.3
2017-Oct-12 05:37N 38°18' E 001°11'515.6
2017-Oct-12 05:19N 38°21' E 001°06'515.5
2017-Oct-12 05:00N 38°25' E 001°03'1215.1
2017-Oct-12 04:13N 38°34' E 000°52'  

Dump ship's entire track history